createdAt,value
2018-12-13T00:02:22.241Z,45.70
2018-12-13T00:04:50.383Z,45.70
2018-12-13T00:07:18.501Z,45.80
2018-12-13T00:09:46.628Z,45.90
2018-12-13T00:12:14.736Z,46.70
2018-12-13T00:14:42.898Z,46.00
2018-12-13T00:17:11.093Z,46.20
2018-12-13T00:19:39.223Z,46.00
2018-12-13T00:22:07.362Z,46.00
2018-12-13T00:24:35.478Z,45.90
2018-12-13T00:27:03.604Z,45.90
2018-12-13T00:29:31.736Z,45.80
2018-12-13T00:31:59.882Z,45.80
2018-12-13T00:34:28.034Z,45.70
2018-12-13T00:36:56.149Z,45.60
2018-12-13T00:39:24.345Z,45.50
2018-12-13T00:41:52.463Z,45.60
2018-12-13T00:44:20.577Z,46.10
2018-12-13T00:46:48.722Z,45.60
2018-12-13T00:49:16.850Z,45.60
2018-12-13T00:51:44.999Z,45.70
2018-12-13T00:54:13.146Z,45.50
2018-12-13T00:56:41.253Z,45.50
2018-12-13T00:59:09.416Z,45.50
2018-12-13T01:01:37.534Z,45.60
2018-12-13T01:04:05.667Z,45.60
2018-12-13T01:06:45.860Z,45.40
2018-12-13T01:09:10.722Z,45.40
2018-12-13T01:11:38.870Z,45.40
2018-12-13T01:14:07.016Z,45.40
2018-12-13T01:16:35.142Z,45.50
2018-12-13T01:19:03.258Z,45.50
2018-12-13T01:21:31.406Z,45.60
2018-12-13T01:23:59.571Z,46.30
2018-12-13T01:26:28.093Z,45.40
2018-12-13T01:28:56.238Z,45.40
2018-12-13T01:31:24.349Z,45.40
2018-12-13T01:33:52.582Z,45.40
2018-12-13T01:36:20.725Z,45.50
2018-12-13T01:38:48.840Z,45.50
2018-12-13T01:41:16.967Z,45.30
2018-12-13T01:43:45.194Z,44.60
2018-12-13T01:46:14.274Z,41.20
2018-12-13T01:48:42.411Z,38.30
2018-12-13T01:51:10.552Z,36.30
2018-12-13T01:53:38.673Z,35.00
2018-12-13T01:56:06.820Z,34.30
2018-12-13T01:58:34.948Z,33.90
2018-12-13T02:01:03.116Z,33.60
2018-12-13T02:03:31.256Z,33.70
2018-12-13T02:05:59.371Z,33.90
2018-12-13T02:08:27.510Z,34.30
2018-12-13T02:10:55.643Z,34.70
2018-12-13T02:13:23.755Z,35.10
2018-12-13T02:15:51.892Z,35.60
2018-12-13T02:18:20.046Z,36.00
2018-12-13T02:20:48.176Z,36.30
2018-12-13T02:23:16.305Z,36.90
2018-12-13T02:25:44.457Z,37.30
2018-12-13T02:28:12.599Z,37.50
2018-12-13T02:30:40.737Z,37.90
2018-12-13T02:33:08.858Z,38.20
2018-12-13T02:35:37.010Z,38.40
2018-12-13T02:38:05.124Z,39.10
2018-12-13T02:40:33.322Z,39.40
2018-12-13T02:43:01.440Z,39.40
2018-12-13T02:45:29.564Z,39.50
2018-12-13T02:47:57.837Z,39.80
2018-12-13T02:50:27.061Z,40.00
2018-12-13T02:52:55.178Z,40.10
2018-12-13T02:55:23.930Z,40.20
2018-12-13T02:57:52.024Z,40.50
2018-12-13T03:00:20.144Z,40.70
2018-12-13T03:02:48.357Z,40.80
2018-12-13T03:05:22.175Z,40.90
2018-12-13T03:07:50.300Z,41.00
2018-12-13T03:10:18.435Z,41.30
2018-12-13T03:12:46.662Z,41.30
2018-12-13T03:15:14.795Z,41.30
2018-12-13T03:17:42.912Z,41.50
2018-12-13T03:20:11.032Z,41.60
2018-12-13T03:22:39.154Z,41.70
2018-12-13T03:25:07.284Z,41.90
2018-12-13T03:27:35.530Z,42.00
2018-12-13T03:30:05.015Z,42.10
2018-12-13T03:32:33.133Z,42.30
2018-12-13T03:35:01.280Z,42.30
2018-12-13T03:37:29.397Z,42.00
2018-12-13T03:39:57.547Z,41.10
2018-12-13T03:42:25.655Z,39.80
2018-12-13T03:44:53.786Z,38.80
2018-12-13T03:47:21.909Z,37.70
2018-12-13T03:49:50.057Z,37.10
2018-12-13T03:52:18.210Z,36.50
2018-12-13T03:54:46.333Z,36.10
2018-12-13T03:57:14.443Z,35.80
2018-12-13T03:59:42.595Z,35.90
2018-12-13T04:02:10.709Z,36.10
2018-12-13T04:04:38.843Z,36.30
2018-12-13T04:07:06.975Z,36.80
2018-12-13T04:09:35.111Z,37.00
2018-12-13T04:12:03.227Z,37.30
2018-12-13T04:14:31.385Z,37.70
2018-12-13T04:16:59.498Z,38.10
2018-12-13T04:19:27.636Z,38.50
2018-12-13T04:21:57.768Z,38.80
2018-12-13T04:24:25.881Z,39.10
2018-12-13T04:26:54.140Z,39.20
2018-12-13T04:29:22.274Z,39.50
2018-12-13T04:31:50.393Z,39.90
2018-12-13T04:34:18.538Z,40.10
2018-12-13T04:36:46.676Z,40.20
2018-12-13T04:39:14.794Z,40.40
2018-12-13T04:41:42.948Z,40.60
2018-12-13T04:44:11.093Z,40.80
2018-12-13T04:46:39.246Z,41.00
2018-12-13T04:49:07.380Z,41.00
2018-12-13T04:51:35.496Z,41.10
2018-12-13T04:54:03.641Z,41.40
2018-12-13T04:56:31.772Z,41.60
2018-12-13T04:58:59.916Z,41.80
2018-12-13T05:01:28.060Z,41.90
2018-12-13T05:03:56.189Z,41.90
2018-12-13T05:06:24.337Z,41.90
2018-12-13T05:08:52.939Z,42.30
2018-12-13T05:11:21.054Z,42.50
2018-12-13T05:13:49.180Z,42.50
2018-12-13T05:16:17.307Z,42.60
2018-12-13T05:18:45.432Z,42.70
2018-12-13T05:21:13.572Z,42.80
2018-12-13T05:23:41.694Z,42.70
2018-12-13T05:26:09.859Z,42.50
2018-12-13T05:28:37.973Z,41.80
2018-12-13T05:31:06.121Z,40.90
2018-12-13T05:33:34.340Z,39.90
2018-12-13T05:36:02.482Z,39.00
2018-12-13T05:38:30.620Z,38.20
2018-12-13T05:40:58.773Z,37.60
2018-12-13T05:43:26.902Z,37.20
2018-12-13T05:45:55.020Z,36.90
2018-12-13T05:48:23.180Z,36.80
2018-12-13T05:50:51.293Z,36.70
2018-12-13T05:53:19.411Z,36.80
2018-12-13T05:55:47.560Z,37.00
2018-12-13T05:58:15.704Z,37.30
2018-12-13T06:00:43.831Z,37.60
2018-12-13T06:03:11.954Z,37.90
2018-12-13T06:05:40.103Z,38.20
2018-12-13T06:08:08.219Z,38.40
2018-12-13T06:10:36.356Z,38.90
2018-12-13T06:13:04.542Z,39.30
2018-12-13T06:15:32.738Z,39.40
2018-12-13T06:18:06.646Z,39.60
2018-12-13T06:20:31.084Z,39.90
2018-12-13T06:22:59.238Z,40.00
2018-12-13T06:25:27.358Z,40.30
2018-12-13T06:27:55.471Z,40.40
2018-12-13T06:30:23.634Z,40.60
2018-12-13T06:32:51.755Z,40.80
2018-12-13T06:35:20.545Z,40.90
2018-12-13T06:37:48.739Z,41.00
2018-12-13T06:40:26.788Z,41.10
2018-12-13T06:42:54.937Z,41.20
2018-12-13T06:45:23.338Z,42.10
2018-12-13T06:47:51.442Z,41.60
2018-12-13T06:50:19.576Z,41.60
2018-12-13T06:52:47.696Z,41.80
2018-12-13T06:55:15.846Z,41.80
2018-12-13T06:57:43.973Z,42.00
2018-12-13T07:00:12.129Z,42.20
2018-12-13T07:02:40.241Z,42.30
2018-12-13T07:05:08.366Z,43.20
2018-12-13T07:07:36.483Z,42.80
2018-12-13T07:10:04.610Z,42.20
2018-12-13T07:12:32.770Z,41.90
2018-12-13T07:15:00.907Z,41.90
2018-12-13T07:17:29.040Z,41.90
2018-12-13T07:19:57.191Z,42.10
2018-12-13T07:22:25.305Z,42.00
2018-12-13T07:24:53.447Z,42.10
2018-12-13T07:27:21.596Z,42.10
2018-12-13T07:29:49.986Z,42.20
2018-12-13T07:32:18.087Z,42.30
2018-12-13T07:34:46.224Z,42.50
2018-12-13T07:37:14.397Z,42.60
2018-12-13T07:39:42.513Z,42.70
2018-12-13T07:42:10.638Z,42.80
2018-12-13T07:44:38.796Z,42.70
2018-12-13T07:47:06.907Z,42.90
2018-12-13T07:49:35.068Z,42.90
2018-12-13T07:52:03.197Z,42.90
2018-12-13T07:54:31.432Z,43.10
2018-12-13T07:56:59.549Z,43.10
2018-12-13T07:59:27.691Z,43.20
2018-12-13T08:01:55.838Z,43.20
2018-12-13T08:04:23.969Z,43.30
2018-12-13T08:06:52.092Z,43.30
2018-12-13T08:09:20.212Z,43.30
2018-12-13T08:11:48.348Z,44.00
2018-12-13T08:14:16.462Z,43.40
2018-12-13T08:16:44.597Z,43.50
2018-12-13T08:19:12.735Z,43.40
2018-12-13T08:21:40.891Z,43.60
2018-12-13T08:24:09.013Z,43.50
2018-12-13T08:26:37.170Z,43.50
2018-12-13T08:29:05.289Z,43.50
2018-12-13T08:31:33.416Z,43.60
2018-12-13T08:34:01.564Z,43.50
2018-12-13T08:36:29.698Z,43.50
2018-12-13T08:38:57.817Z,43.60
2018-12-13T08:41:25.979Z,43.60
2018-12-13T08:43:54.093Z,43.50
2018-12-13T08:46:22.215Z,44.40
2018-12-13T08:48:50.360Z,43.70
2018-12-13T08:51:18.488Z,43.70
2018-12-13T08:53:46.647Z,43.70
2018-12-13T08:56:15.746Z,43.70
2018-12-13T08:58:43.870Z,43.60
2018-12-13T09:01:12.103Z,43.60
2018-12-13T09:03:40.251Z,43.60
2018-12-13T09:06:08.475Z,43.70
2018-12-13T09:08:36.731Z,43.80
2018-12-13T09:11:04.837Z,43.70
2018-12-13T09:13:32.976Z,43.70
2018-12-13T09:16:01.118Z,43.80
2018-12-13T09:18:29.240Z,43.90
2018-12-13T09:20:57.358Z,43.70
2018-12-13T09:23:25.591Z,44.30
2018-12-13T09:25:53.736Z,43.70
2018-12-13T09:28:21.855Z,43.70
2018-12-13T09:30:49.983Z,43.60
2018-12-13T09:33:18.102Z,43.70
2018-12-13T09:35:46.251Z,43.60
2018-12-13T09:38:14.364Z,43.70
2018-12-13T09:40:42.497Z,43.60
2018-12-13T09:43:10.642Z,43.70
2018-12-13T09:45:38.804Z,43.60
2018-12-13T09:48:06.943Z,43.50
2018-12-13T09:50:35.056Z,43.60
2018-12-13T09:53:03.239Z,43.80
2018-12-13T09:55:31.382Z,43.70
2018-12-13T09:57:59.588Z,43.50
2018-12-13T10:00:28.100Z,43.60
2018-12-13T10:02:56.582Z,43.60
2018-12-13T10:05:24.700Z,43.60
2018-12-13T10:07:52.955Z,43.60
2018-12-13T10:10:21.107Z,43.70
2018-12-13T10:12:49.488Z,43.50
2018-12-13T10:15:17.727Z,43.50
2018-12-13T10:17:45.830Z,43.60
2018-12-13T10:20:14.006Z,43.50
2018-12-13T10:22:42.175Z,43.50
2018-12-13T10:25:10.421Z,43.50
2018-12-13T10:27:38.565Z,43.50
2018-12-13T10:30:06.678Z,43.60
2018-12-13T10:32:34.815Z,43.50
2018-12-13T10:35:03.806Z,43.40
2018-12-13T10:37:31.966Z,43.50
2018-12-13T10:40:00.082Z,43.50
2018-12-13T10:42:28.811Z,43.50
2018-12-13T10:44:56.915Z,43.50
2018-12-13T10:47:25.040Z,43.50
2018-12-13T10:49:53.184Z,43.50
2018-12-13T10:52:21.311Z,43.70
2018-12-13T10:54:49.454Z,43.70
2018-12-13T10:57:17.569Z,43.60
2018-12-13T10:59:45.957Z,43.50
2018-12-13T11:02:19.631Z,43.50
2018-12-13T11:04:47.777Z,43.50
2018-12-13T11:07:15.900Z,43.50
2018-12-13T11:09:44.043Z,43.40
2018-12-13T11:12:12.189Z,43.40
2018-12-13T11:14:40.342Z,43.50
2018-12-13T11:17:08.475Z,43.30
2018-12-13T11:19:36.602Z,43.50
2018-12-13T11:22:04.741Z,43.50
2018-12-13T11:24:32.862Z,43.50
2018-12-13T11:27:12.965Z,44.10
2018-12-13T11:29:48.806Z,43.40
2018-12-13T11:32:16.961Z,43.30
2018-12-13T11:34:45.099Z,43.50
2018-12-13T11:37:13.224Z,43.20
2018-12-13T11:39:41.367Z,43.20
2018-12-13T11:42:09.478Z,43.20
2018-12-13T11:44:37.616Z,43.40
2018-12-13T11:47:05.777Z,43.30
2018-12-13T11:49:33.898Z,43.30
2018-12-13T11:52:02.018Z,43.40
2018-12-13T11:54:31.254Z,43.40
2018-12-13T11:56:59.375Z,43.30
2018-12-13T11:59:27.489Z,43.30
2018-12-13T12:01:55.648Z,43.30
2018-12-13T12:04:23.763Z,43.20
2018-12-13T12:06:51.941Z,43.30
2018-12-13T12:09:20.181Z,43.40
2018-12-13T12:11:48.286Z,43.40
2018-12-13T12:14:16.422Z,43.30
2018-12-13T12:16:44.581Z,43.10
2018-12-13T12:19:12.701Z,43.20
2018-12-13T12:21:40.849Z,43.20
2018-12-13T12:24:09.010Z,43.90
2018-12-13T12:26:37.143Z,43.30
2018-12-13T12:29:05.244Z,43.30
2018-12-13T12:31:33.394Z,43.30
2018-12-13T12:34:01.501Z,43.20
2018-12-13T12:36:29.646Z,43.20
2018-12-13T12:38:57.794Z,43.20
2018-12-13T12:41:25.911Z,43.20
2018-12-13T12:43:54.041Z,43.20
2018-12-13T12:46:22.167Z,43.20
2018-12-13T12:48:50.305Z,43.30
2018-12-13T12:51:18.433Z,43.10
2018-12-13T12:53:46.574Z,43.10
2018-12-13T12:56:14.720Z,43.20
2018-12-13T12:58:42.862Z,43.20
2018-12-13T13:01:10.982Z,43.20
2018-12-13T13:03:39.137Z,43.20
2018-12-13T13:06:07.256Z,43.30
2018-12-13T13:08:35.397Z,43.20
2018-12-13T13:11:03.583Z,43.10
2018-12-13T13:13:31.695Z,43.20
2018-12-13T13:15:59.827Z,43.20
2018-12-13T13:18:27.940Z,43.10
2018-12-13T13:20:56.084Z,43.30
2018-12-13T13:23:24.326Z,43.10
2018-12-13T13:25:52.437Z,43.20
2018-12-13T13:28:20.595Z,43.10
2018-12-13T13:30:48.985Z,43.20
2018-12-13T13:33:17.100Z,43.20
2018-12-13T13:35:45.243Z,43.20
2018-12-13T13:38:13.396Z,43.10
2018-12-13T13:40:41.516Z,43.20
2018-12-13T13:43:09.631Z,43.20
2018-12-13T13:45:37.990Z,43.20
2018-12-13T13:48:06.098Z,43.10
2018-12-13T13:50:34.222Z,43.10
2018-12-13T13:53:02.337Z,43.10
2018-12-13T13:55:30.482Z,43.20
2018-12-13T13:57:58.642Z,43.10
2018-12-13T14:00:26.760Z,43.10
2018-12-13T14:02:54.875Z,43.20
2018-12-13T14:05:23.019Z,43.00
2018-12-13T14:07:51.134Z,43.00
2018-12-13T14:10:19.290Z,43.10
2018-12-13T14:15:21.975Z,42.90
2018-12-13T14:17:50.094Z,42.90
2018-12-13T14:20:18.196Z,43.00
2018-12-13T14:22:47.803Z,43.10
2018-12-13T14:25:15.923Z,43.00
2018-12-13T14:27:44.051Z,43.10
2018-12-13T14:30:12.868Z,43.10
2018-12-13T14:32:40.987Z,43.10
2018-12-13T14:35:09.252Z,43.00
2018-12-13T14:37:37.384Z,43.10
2018-12-13T14:40:18.808Z,43.00
2018-12-13T14:42:47.064Z,43.10
2018-12-13T14:45:15.181Z,43.10
2018-12-13T14:47:43.294Z,43.20
2018-12-13T14:50:11.438Z,43.10
2018-12-13T14:52:39.583Z,43.10
2018-12-13T14:55:07.728Z,43.10
2018-12-13T14:57:35.863Z,43.00
2018-12-13T15:00:06.057Z,43.00
2018-12-13T15:02:34.266Z,43.10
2018-12-13T15:05:04.092Z,43.10
2018-12-13T15:07:32.286Z,43.10
2018-12-13T15:10:00.434Z,43.00
2018-12-13T15:12:28.550Z,43.10
2018-12-13T15:14:56.713Z,43.10
2018-12-13T15:17:24.829Z,43.10
2018-12-13T15:19:52.945Z,43.00
2018-12-13T15:22:21.100Z,43.00
2018-12-13T15:24:49.214Z,42.90
2018-12-13T15:27:17.336Z,43.00
2018-12-13T15:29:46.270Z,43.10
2018-12-13T15:32:14.392Z,41.70
2018-12-13T15:34:42.543Z,40.70
2018-12-13T15:37:10.666Z,39.90
2018-12-13T15:39:38.817Z,39.90
2018-12-13T15:42:06.933Z,40.10
2018-12-13T15:44:35.078Z,40.00
2018-12-13T15:47:03.235Z,39.20
2018-12-13T15:49:32.533Z,42.50
2018-12-13T15:52:00.889Z,40.60
2018-12-13T15:54:42.673Z,33.30
2018-12-13T15:57:10.837Z,29.80
2018-12-13T15:59:39.223Z,28.60
2018-12-13T16:02:07.442Z,28.20
2018-12-13T16:04:36.768Z,28.10
2018-12-13T16:07:04.893Z,27.90
2018-12-13T16:09:33.007Z,28.00
2018-12-13T16:12:01.157Z,27.90
2018-12-13T16:14:29.552Z,28.00
2018-12-13T16:16:57.665Z,28.40
2018-12-13T16:19:25.807Z,28.50
2018-12-13T16:21:53.947Z,28.70
2018-12-13T16:24:22.059Z,29.20
2018-12-13T16:26:50.223Z,29.60
2018-12-13T16:29:19.206Z,30.00
2018-12-13T16:31:47.731Z,30.40
2018-12-13T16:34:15.859Z,30.80
2018-12-13T16:36:43.998Z,31.40
2018-12-13T16:39:12.933Z,31.90
2018-12-13T16:41:41.051Z,32.50
2018-12-13T16:44:09.210Z,32.90
2018-12-13T16:46:37.329Z,33.50
2018-12-13T16:49:06.463Z,33.90
2018-12-13T16:51:34.585Z,34.40
2018-12-13T16:54:02.700Z,35.00
2018-12-13T16:56:30.846Z,35.50
2018-12-13T16:58:59.081Z,35.90
2018-12-13T17:01:27.234Z,36.50
2018-12-13T17:03:55.347Z,36.50
2018-12-13T17:06:23.477Z,36.70
2018-12-13T17:08:51.605Z,36.90
2018-12-13T17:11:20.834Z,37.10
2018-12-13T17:13:48.959Z,37.30
2018-12-13T17:16:17.359Z,37.80
2018-12-13T17:18:46.049Z,37.80
2018-12-13T17:21:14.173Z,38.00
2018-12-13T17:23:42.299Z,38.20
2018-12-13T17:26:10.456Z,38.40
2018-12-13T17:28:38.611Z,38.40
2018-12-13T17:31:06.729Z,38.90
2018-12-13T17:33:34.901Z,39.70
2018-12-13T17:36:03.021Z,39.90
2018-12-13T17:38:31.146Z,40.00
2018-12-13T17:40:59.302Z,40.00
2018-12-13T17:43:27.413Z,40.10
2018-12-13T17:45:55.541Z,40.30
2018-12-13T17:48:23.685Z,40.40
2018-12-13T17:50:51.855Z,40.40
2018-12-13T17:53:19.973Z,40.50
2018-12-13T17:55:48.094Z,40.60
2018-12-13T17:58:16.236Z,40.60
2018-12-13T18:00:44.376Z,40.80
2018-12-13T18:03:12.540Z,40.80
2018-12-13T18:05:40.651Z,40.80
2018-12-13T18:08:08.912Z,40.80
2018-12-13T18:10:37.074Z,40.90
2018-12-13T18:13:05.268Z,40.90
2018-12-13T18:15:35.347Z,41.00
2018-12-13T18:18:03.499Z,41.00
2018-12-13T18:20:31.699Z,41.00
2018-12-13T18:22:59.806Z,41.10
2018-12-13T18:25:27.972Z,41.20
2018-12-13T18:27:56.168Z,41.20
2018-12-13T18:30:24.357Z,41.30
2018-12-13T18:32:52.520Z,41.50
2018-12-13T18:35:20.694Z,41.50
2018-12-13T18:40:23.284Z,41.60
2018-12-13T18:42:51.511Z,41.80
2018-12-13T18:45:21.529Z,41.80
2018-12-13T18:47:49.688Z,41.90
2018-12-13T18:50:17.871Z,42.00
2018-12-13T18:52:46.064Z,42.40
2018-12-13T18:55:14.261Z,42.80
2018-12-13T18:57:42.411Z,42.90
2018-12-13T19:00:10.547Z,42.80
2018-12-13T19:02:38.843Z,42.80
2018-12-13T19:05:07.035Z,42.80
2018-12-13T19:07:35.260Z,42.90
2018-12-13T19:10:05.894Z,42.80
2018-12-13T19:12:34.066Z,42.70
2018-12-13T19:15:02.258Z,42.80
2018-12-13T19:17:30.397Z,42.80
2018-12-13T19:19:58.545Z,42.90
2018-12-13T19:22:26.777Z,43.00
2018-12-13T19:24:54.936Z,43.10
2018-12-13T19:27:23.118Z,43.10
2018-12-13T19:29:51.241Z,43.10
2018-12-13T19:32:19.370Z,43.20
2018-12-13T19:34:48.008Z,43.10
2018-12-13T19:37:16.175Z,43.20
2018-12-13T19:39:44.295Z,43.30
2018-12-13T19:42:12.445Z,43.30
2018-12-13T19:44:40.568Z,43.30
2018-12-13T19:47:08.690Z,43.40
2018-12-13T19:49:36.872Z,43.20
2018-12-13T19:52:05.062Z,43.00
2018-12-13T19:54:33.223Z,43.10
2018-12-13T19:57:02.569Z,43.50
2018-12-13T19:59:30.743Z,42.40
2018-12-13T20:01:59.051Z,39.50
2018-12-13T20:04:27.227Z,37.20
2018-12-13T20:06:56.345Z,35.30
2018-12-13T20:09:24.472Z,34.00
2018-12-13T20:11:52.648Z,33.40
2018-12-13T20:14:20.892Z,33.00
2018-12-13T20:16:49.073Z,32.90
2018-12-13T20:19:17.206Z,33.00
2018-12-13T20:21:46.790Z,33.30
2018-12-13T20:24:14.948Z,33.90
2018-12-13T20:26:43.128Z,34.50
2018-12-13T20:29:11.252Z,35.00
2018-12-13T20:31:39.401Z,35.70
2018-12-13T20:34:07.924Z,35.80
2018-12-13T20:36:36.037Z,36.10
2018-12-13T20:39:09.723Z,36.40
2018-12-13T20:41:39.262Z,36.70
2018-12-13T20:44:07.432Z,36.90
2018-12-13T20:46:35.568Z,37.20
2018-12-13T20:49:03.678Z,37.40
2018-12-13T20:51:31.825Z,37.60
2018-12-13T20:53:59.947Z,38.00
2018-12-13T20:56:28.094Z,38.10
2018-12-13T20:58:56.364Z,38.20
2018-12-13T21:01:24.477Z,38.50
2018-12-13T21:03:52.586Z,38.70
2018-12-13T21:06:20.755Z,38.80
2018-12-13T21:08:48.876Z,39.00
2018-12-13T21:11:17.020Z,39.10
2018-12-13T21:13:45.220Z,39.30
2018-12-13T21:16:13.363Z,39.40
2018-12-13T21:18:41.494Z,39.50
2018-12-13T21:21:09.622Z,39.50
2018-12-13T21:23:37.751Z,39.80
2018-12-13T21:26:05.906Z,39.90
2018-12-13T21:28:34.100Z,40.60
2018-12-13T21:31:02.256Z,40.00
2018-12-13T21:33:30.396Z,40.10
2018-12-13T21:35:58.519Z,40.20
2018-12-13T21:38:26.681Z,40.30
2018-12-13T21:40:54.931Z,40.40
2018-12-13T21:43:23.062Z,40.50
2018-12-13T21:45:51.188Z,40.50
2018-12-13T21:48:19.330Z,40.50
2018-12-13T21:50:47.486Z,40.60
2018-12-13T21:53:15.594Z,40.70
2018-12-13T21:55:43.744Z,40.80
2018-12-13T21:58:11.873Z,40.80
2018-12-13T22:00:40.019Z,40.90
2018-12-13T22:03:08.175Z,40.90
2018-12-13T22:05:36.589Z,41.10
2018-12-13T22:08:04.971Z,41.20
2018-12-13T22:10:33.106Z,41.30
2018-12-13T22:13:01.289Z,41.40
2018-12-13T22:15:29.538Z,41.20
2018-12-13T22:17:57.745Z,40.50
2018-12-13T22:20:25.882Z,39.60
2018-12-13T22:22:54.062Z,38.80
2018-12-13T22:25:22.254Z,38.10
2018-12-13T22:27:50.368Z,37.50
2018-12-13T22:30:18.524Z,36.90
2018-12-13T22:32:46.687Z,36.60
2018-12-13T22:35:14.796Z,36.30
2018-12-13T22:37:42.912Z,36.20
2018-12-13T22:40:11.059Z,36.10
2018-12-13T22:42:39.177Z,36.20
2018-12-13T22:45:07.326Z,36.40
2018-12-13T22:47:35.473Z,36.50
2018-12-13T22:50:07.240Z,36.70
2018-12-13T22:52:35.362Z,36.80
2018-12-13T22:55:04.749Z,37.00
2018-12-13T22:57:33.754Z,37.30
2018-12-13T23:00:01.992Z,37.50
2018-12-13T23:02:30.101Z,38.40
2018-12-13T23:04:58.231Z,37.90
2018-12-13T23:07:26.356Z,38.70
2018-12-13T23:09:54.515Z,38.40
2018-12-13T23:12:22.630Z,38.50
2018-12-13T23:14:51.955Z,38.60
2018-12-13T23:17:21.260Z,38.90
2018-12-13T23:19:49.398Z,39.00
2018-12-13T23:22:17.547Z,39.60
2018-12-13T23:24:45.750Z,39.30
2018-12-13T23:27:13.870Z,39.50
2018-12-13T23:29:42.104Z,39.50
2018-12-13T23:32:10.257Z,39.60
2018-12-13T23:34:38.398Z,39.70
2018-12-13T23:37:06.586Z,39.90
2018-12-13T23:39:34.787Z,40.00
2018-12-13T23:42:02.935Z,40.10
2018-12-13T23:44:31.060Z,40.00
2018-12-13T23:46:59.197Z,40.00
2018-12-13T23:49:27.318Z,40.20
2018-12-13T23:51:55.454Z,40.30
2018-12-13T23:54:23.592Z,40.40
2018-12-13T23:56:51.726Z,40.40
2018-12-13T23:59:19.872Z,40.10
